Time;durP1;ratioP1;P1;durP2;ratioP2;P2;SDS_P1;SDS_P2;PMS_P1;PMS_P2;Temp;Humidity;BMP_temperature;BMP_pressure;BME280_temperature;BME280_humidity;BME280_pressure;Samples;Min_cycle;Max_cycle;Signal;HPM_P1;HPM_P2
2024/01/08 00:01:10;;;;;;;;;;;4.20;99.90;;;;;;5115631;28;20451;-74
2024/01/08 00:03:38;;;;;;;;;;;4.20;99.90;;;;;;5114487;28;19914;-72
2024/01/08 00:06:03;;;;;;;;;;;4.20;99.90;;;;;;5115857;28;19904;-73
2024/01/08 00:08:29;;;;;;;;;;;4.10;99.90;;;;;;5115996;28;20859;-74
2024/01/08 00:10:54;;;;;;;;;;;4.10;99.90;;;;;;5115863;28;19907;-73
2024/01/08 00:13:20;;;;;;;;;;;4.10;99.90;;;;;;5115893;28;19910;-72
2024/01/08 00:15:45;;;;;;;;;;;4.10;99.90;;;;;;5110036;28;19911;-73
2024/01/08 00:18:11;;;;;;;;;;;4.10;99.90;;;;;;5114310;28;19904;-72
2024/01/08 00:20:36;;;;;;;;;;;4.10;99.90;;;;;;5117678;28;19976;-74
2024/01/08 00:23:02;;;;;;;;;;;4.10;99.90;;;;;;5119571;28;20501;-75
2024/01/08 00:25:28;;;;;;;;;;;4.10;99.90;;;;;;5118099;28;20052;-77
2024/01/08 00:27:54;;;;;;;;;;;4.10;99.90;;;;;;5119742;28;20003;-73
2024/01/08 00:30:20;;;;;;;;;;;4.10;99.90;;;;;;5117879;28;19904;-73
2024/01/08 00:32:45;;;;;;;;;;;4.10;99.90;;;;;;5111853;28;19908;-73
2024/01/08 00:35:11;;;;;;;;;;;4.10;99.90;;;;;;5119446;28;19946;-73
2024/01/08 00:37:38;;;;;;;;;;;4.10;99.90;;;;;;5119033;28;20343;-74
2024/01/08 00:40:07;;;;;;;;;;;4.10;99.90;;;;;;5119286;28;19911;-74
2024/01/08 00:42:34;;;;;;;;;;;4.10;99.90;;;;;;5119253;28;19915;-72
2024/01/08 00:44:59;;;;;;;;;;;4.10;99.90;;;;;;5119079;28;19908;-72
2024/01/08 00:47:25;;;;;;;;;;;4.10;99.90;;;;;;5118818;28;19908;-74
2024/01/08 00:49:50;;;;;;;;;;;4.10;99.90;;;;;;5118112;28;19907;-73
2024/01/08 00:52:16;;;;;;;;;;;4.10;99.90;;;;;;5118900;28;19907;-73
2024/01/08 00:54:41;;;;;;;;;;;4.10;99.90;;;;;;5119115;28;20041;-73
2024/01/08 00:57:07;;;;;;;;;;;4.00;99.90;;;;;;5117754;28;20007;-74
2024/01/08 00:59:32;;;;;;;;;;;4.00;99.90;;;;;;5117351;28;19910;-72
2024/01/08 01:01:58;;;;;;;;;;;4.00;99.90;;;;;;5118640;28;20299;-73
2024/01/08 01:04:23;;;;;;;;;;;4.10;99.90;;;;;;5118410;28;20398;-74
2024/01/08 01:06:49;;;;;;;;;;;4.10;99.90;;;;;;5110452;28;19915;-72
2024/01/08 01:09:15;;;;;;;;;;;4.10;99.90;;;;;;5113804;28;19908;-73
2024/01/08 01:11:40;;;;;;;;;;;4.00;99.90;;;;;;5118695;27;19904;-72
2024/01/08 01:14:06;;;;;;;;;;;4.10;99.90;;;;;;5117255;28;20012;-73
2024/01/08 01:16:33;;;;;;;;;;;4.10;99.90;;;;;;5113710;28;19908;-73
2024/01/08 01:18:58;;;;;;;;;;;4.10;99.90;;;;;;5118423;28;19911;-73
2024/01/08 01:21:24;;;;;;;;;;;4.00;99.90;;;;;;5117178;28;19908;-73
2024/01/08 01:23:50;;;;;;;;;;;4.00;99.90;;;;;;5118089;27;20395;-73
2024/01/08 01:26:16;;;;;;;;;;;4.00;99.90;;;;;;5118757;28;19904;-74
2024/01/08 01:28:42;;;;;;;;;;;4.00;99.90;;;;;;5118326;28;19914;-74
2024/01/08 01:31:11;;;;;;;;;;;4.00;99.90;;;;;;5116127;28;19914;-74
2024/01/08 01:33:36;;;;;;;;;;;4.00;99.90;;;;;;5113493;28;19904;-74
2024/01/08 01:36:02;;;;;;;;;;;4.00;99.90;;;;;;5118268;28;19919;-72
2024/01/08 01:38:27;;;;;;;;;;;4.00;99.90;;;;;;5114791;28;19933;-73
2024/01/08 01:40:53;;;;;;;;;;;4.00;99.90;;;;;;5106131;28;19908;-73
2024/01/08 01:43:19;;;;;;;;;;;4.00;99.90;;;;;;5117829;28;19915;-73
2024/01/08 01:45:45;;;;;;;;;;;4.00;99.90;;;;;;5117688;28;19984;-73
2024/01/08 01:48:11;;;;;;;;;;;4.00;99.90;;;;;;5117772;28;19903;-73
2024/01/08 01:50:36;;;;;;;;;;;4.00;99.90;;;;;;5116698;28;19925;-73
2024/01/08 01:53:02;;;;;;;;;;;4.00;99.90;;;;;;5117211;28;20485;-73
2024/01/08 01:55:27;;;;;;;;;;;4.00;99.90;;;;;;5116413;28;19968;-73
2024/01/08 01:57:53;;;;;;;;;;;4.00;99.90;;;;;;5117806;28;19911;-73
2024/01/08 02:00:19;;;;;;;;;;;4.00;99.90;;;;;;5116308;28;19983;-73
2024/01/08 02:02:45;;;;;;;;;;;4.00;99.90;;;;;;5117395;28;19952;-73
2024/01/08 02:05:14;;;;;;;;;;;3.90;99.90;;;;;;5117833;28;19908;-73
2024/01/08 02:07:40;;;;;;;;;;;3.90;99.90;;;;;;5117422;28;19926;-73
2024/01/08 02:10:06;;;;;;;;;;;3.90;99.90;;;;;;5116020;28;19911;-73
2024/01/08 02:12:32;;;;;;;;;;;3.90;99.90;;;;;;5117333;28;20002;-72
2024/01/08 02:14:57;;;;;;;;;;;3.90;99.90;;;;;;5115741;28;19947;-73
2024/01/08 02:17:23;;;;;;;;;;;4.00;99.90;;;;;;5111445;28;20361;-72
2024/01/08 02:19:49;;;;;;;;;;;3.90;99.90;;;;;;5116054;28;19904;-73
2024/01/08 02:22:14;;;;;;;;;;;4.00;99.90;;;;;;5115409;28;19956;-73
2024/01/08 02:24:40;;;;;;;;;;;4.00;99.90;;;;;;5117499;28;19908;-73
2024/01/08 02:27:05;;;;;;;;;;;4.00;99.90;;;;;;5117023;28;19908;-73
2024/01/08 02:29:31;;;;;;;;;;;4.00;99.90;;;;;;5117354;28;19912;-73
2024/01/08 02:31:57;;;;;;;;;;;4.00;99.90;;;;;;5111184;28;20459;-73
2024/01/08 02:34:22;;;;;;;;;;;4.00;99.90;;;;;;5117194;28;19911;-72
2024/01/08 02:36:47;;;;;;;;;;;4.00;99.90;;;;;;5115588;28;19904;-73
2024/01/08 02:39:13;;;;;;;;;;;4.00;99.90;;;;;;5117064;28;19912;-74
2024/01/08 02:41:39;;;;;;;;;;;4.00;99.90;;;;;;5113661;28;19908;-73
2024/01/08 02:44:04;;;;;;;;;;;4.00;99.90;;;;;;5104334;28;19912;-73
2024/01/08 02:46:30;;;;;;;;;;;4.00;99.90;;;;;;5116284;28;19904;-72
2024/01/08 02:48:56;;;;;;;;;;;4.00;99.90;;;;;;5115763;28;19904;-72
2024/01/08 02:51:21;;;;;;;;;;;3.90;99.90;;;;;;5112101;28;19907;-73
2024/01/08 02:53:47;;;;;;;;;;;3.90;99.90;;;;;;5115530;28;19943;-73
2024/01/08 02:56:21;;;;;;;;;;;4.00;99.90;;;;;;5110554;28;20248;-73
2024/01/08 02:58:47;;;;;;;;;;;3.90;99.90;;;;;;5116805;28;19915;-73
2024/01/08 03:01:13;;;;;;;;;;;3.90;99.90;;;;;;5116242;28;19911;-74
2024/01/08 03:03:38;;;;;;;;;;;3.90;99.90;;;;;;5103160;28;20356;-74
2024/01/08 03:06:04;;;;;;;;;;;3.90;99.90;;;;;;5115212;28;20384;-74
2024/01/08 03:08:29;;;;;;;;;;;3.90;99.90;;;;;;5116216;28;19914;-73
2024/01/08 03:10:55;;;;;;;;;;;3.90;99.90;;;;;;5115729;28;20363;-74
2024/01/08 03:13:20;;;;;;;;;;;3.90;99.90;;;;;;5116689;28;19947;-73
2024/01/08 03:15:46;;;;;;;;;;;3.80;99.90;;;;;;5110051;28;19932;-73
2024/01/08 03:18:12;;;;;;;;;;;3.80;99.90;;;;;;5116141;28;19998;-74
2024/01/08 03:20:38;;;;;;;;;;;3.80;99.90;;;;;;5111087;28;19930;-75
2024/01/08 03:23:04;;;;;;;;;;;3.80;99.90;;;;;;5114687;28;20061;-74
2024/01/08 03:25:29;;;;;;;;;;;3.80;99.90;;;;;;5112075;28;19910;-75
2024/01/08 03:27:55;;;;;;;;;;;3.80;99.90;;;;;;5114963;28;19915;-74
2024/01/08 03:30:20;;;;;;;;;;;3.80;99.90;;;;;;5116521;28;19907;-74
2024/01/08 03:32:46;;;;;;;;;;;3.80;99.90;;;;;;5110002;28;19904;-74
2024/01/08 03:35:11;;;;;;;;;;;3.80;99.90;;;;;;5115929;28;19903;-73
2024/01/08 03:37:37;;;;;;;;;;;3.80;99.90;;;;;;5109021;28;19958;-73
2024/01/08 03:40:04;;;;;;;;;;;3.80;99.90;;;;;;5116260;28;19908;-73
2024/01/08 03:42:30;;;;;;;;;;;3.80;99.90;;;;;;5115980;28;19958;-74
2024/01/08 03:44:56;;;;;;;;;;;3.80;99.90;;;;;;5114673;28;19951;-73
2024/01/08 03:47:21;;;;;;;;;;;3.80;99.90;;;;;;5115943;28;19908;-72
2024/01/08 03:49:50;;;;;;;;;;;3.80;99.90;;;;;;5115847;28;19904;-73
2024/01/08 03:52:15;;;;;;;;;;;3.80;99.90;;;;;;5114791;28;19904;-74
2024/01/08 03:54:41;;;;;;;;;;;3.80;99.90;;;;;;5116471;28;19914;-74
2024/01/08 03:57:06;;;;;;;;;;;3.80;99.90;;;;;;5120108;28;19923;-73
2024/01/08 03:59:32;;;;;;;;;;;3.80;99.90;;;;;;5118662;28;19908;-71
2024/01/08 04:01:57;;;;;;;;;;;3.70;99.90;;;;;;5118160;28;19915;-73
2024/01/08 04:04:23;;;;;;;;;;;3.80;99.90;;;;;;5099970;28;19920;-73
2024/01/08 04:06:48;;;;;;;;;;;3.70;99.90;;;;;;5108418;28;20371;-73
2024/01/08 04:09:14;;;;;;;;;;;3.70;99.90;;;;;;5115544;28;19986;-73
2024/01/08 04:11:41;;;;;;;;;;;3.70;99.90;;;;;;5118466;28;19947;-73
2024/01/08 04:14:06;;;;;;;;;;;3.70;99.90;;;;;;5114064;28;19958;-72
2024/01/08 04:16:32;;;;;;;;;;;3.70;99.90;;;;;;5119338;28;19911;-73
2024/01/08 04:18:57;;;;;;;;;;;3.70;99.90;;;;;;5119665;28;19907;-73
2024/01/08 04:21:23;;;;;;;;;;;3.70;99.90;;;;;;5119739;28;19908;-73
2024/01/08 04:23:49;;;;;;;;;;;3.70;99.90;;;;;;5118019;28;20036;-73
2024/01/08 04:26:15;;;;;;;;;;;3.70;99.90;;;;;;5119882;28;20291;-73
2024/01/08 04:28:41;;;;;;;;;;;3.70;99.90;;;;;;5118212;28;20356;-73
2024/01/08 04:31:06;;;;;;;;;;;3.70;99.90;;;;;;5119207;28;19926;-72
2024/01/08 04:33:32;;;;;;;;;;;3.70;99.90;;;;;;5114308;28;19916;-72
2024/01/08 04:35:57;;;;;;;;;;;3.60;99.90;;;;;;5119465;28;19911;-72
2024/01/08 04:38:23;;;;;;;;;;;3.70;99.90;;;;;;5118579;28;19949;-73
2024/01/08 04:40:48;;;;;;;;;;;3.70;99.90;;;;;;5107320;28;19908;-73
2024/01/08 04:43:14;;;;;;;;;;;3.70;99.90;;;;;;5117353;28;19912;-72
2024/01/08 04:45:39;;;;;;;;;;;3.70;99.90;;;;;;5117774;28;19908;-73
2024/01/08 04:48:05;;;;;;;;;;;3.70;99.90;;;;;;5117302;28;19903;-72
2024/01/08 04:50:30;;;;;;;;;;;3.70;99.90;;;;;;5118280;28;19910;-72
2024/01/08 04:52:58;;;;;;;;;;;3.70;99.90;;;;;;5118951;28;19945;-72
2024/01/08 04:55:23;;;;;;;;;;;3.70;99.90;;;;;;5119074;27;20006;-72
2024/01/08 04:57:49;;;;;;;;;;;3.60;99.90;;;;;;5119000;28;19938;-72
2024/01/08 05:00:14;;;;;;;;;;;3.60;99.90;;;;;;5119066;28;20275;-73
2024/01/08 05:02:40;;;;;;;;;;;3.60;99.90;;;;;;5118724;28;20375;-73
2024/01/08 05:05:06;;;;;;;;;;;3.70;99.90;;;;;;5118664;28;19994;-73
2024/01/08 05:07:32;;;;;;;;;;;3.70;99.90;;;;;;5116232;28;19937;-72
2024/01/08 05:09:57;;;;;;;;;;;3.70;99.90;;;;;;5118813;28;20295;-73
2024/01/08 05:12:23;;;;;;;;;;;3.70;99.90;;;;;;5118576;28;19914;-72
2024/01/08 05:14:48;;;;;;;;;;;3.70;99.90;;;;;;5117254;28;19908;-72
2024/01/08 05:17:14;;;;;;;;;;;3.70;99.90;;;;;;5118380;28;19960;-72
2024/01/08 05:19:39;;;;;;;;;;;3.70;99.90;;;;;;5117076;28;19904;-72
2024/01/08 05:22:05;;;;;;;;;;;3.70;99.90;;;;;;5118146;28;19907;-73
2024/01/08 05:24:30;;;;;;;;;;;3.70;99.90;;;;;;5118231;28;19911;-72
2024/01/08 05:26:56;;;;;;;;;;;3.70;99.90;;;;;;5118363;28;19903;-73
2024/01/08 05:29:21;;;;;;;;;;;3.70;99.90;;;;;;5117267;28;19960;-73
2024/01/08 05:31:47;;;;;;;;;;;3.70;99.90;;;;;;5113692;28;19945;-73
2024/01/08 05:34:12;;;;;;;;;;;3.70;99.90;;;;;;5116985;28;19907;-73
2024/01/08 05:36:41;;;;;;;;;;;3.70;99.90;;;;;;5116741;28;20796;-73
2024/01/08 05:39:07;;;;;;;;;;;3.70;99.90;;;;;;5118155;27;19998;-73
2024/01/08 05:41:34;;;;;;;;;;;3.70;99.90;;;;;;5117612;28;19954;-73
2024/01/08 05:43:59;;;;;;;;;;;3.70;99.90;;;;;;5116681;28;20287;-73
2024/01/08 05:46:25;;;;;;;;;;;3.60;99.90;;;;;;5116244;28;19908;-73
2024/01/08 05:48:50;;;;;;;;;;;3.60;99.90;;;;;;5116968;28;19908;-73
2024/01/08 05:51:17;;;;;;;;;;;3.60;99.90;;;;;;5117902;28;20002;-73
2024/01/08 05:53:43;;;;;;;;;;;3.60;99.90;;;;;;5117719;28;19904;-73
2024/01/08 05:56:08;;;;;;;;;;;3.60;99.90;;;;;;5117665;28;19915;-73
2024/01/08 05:58:34;;;;;;;;;;;3.60;99.90;;;;;;5116385;28;19945;-73
2024/01/08 06:01:00;;;;;;;;;;;3.60;99.90;;;;;;5117414;27;19930;-73
2024/01/08 06:03:25;;;;;;;;;;;3.60;99.90;;;;;;5117798;28;20287;-73
2024/01/08 06:05:51;;;;;;;;;;;3.60;99.90;;;;;;5117720;28;20383;-73
2024/01/08 06:08:17;;;;;;;;;;;3.60;99.90;;;;;;5116392;28;20038;-73
2024/01/08 06:10:42;;;;;;;;;;;3.60;99.90;;;;;;5116065;28;19914;-73
2024/01/08 06:13:09;;;;;;;;;;;3.60;99.90;;;;;;5116069;28;19904;-73
2024/01/08 06:15:34;;;;;;;;;;;3.60;99.90;;;;;;5111541;28;20387;-73
2024/01/08 06:18:00;;;;;;;;;;;3.60;99.90;;;;;;5116745;28;20348;-72
2024/01/08 06:20:25;;;;;;;;;;;3.60;99.90;;;;;;5110615;28;19946;-73
2024/01/08 06:22:51;;;;;;;;;;;3.60;99.90;;;;;;5110520;28;19936;-73
2024/01/08 06:25:16;;;;;;;;;;;3.70;99.90;;;;;;5117247;28;19994;-73
2024/01/08 06:27:42;;;;;;;;;;;3.60;99.90;;;;;;5104019;28;19950;-73
2024/01/08 06:30:08;;;;;;;;;;;3.60;99.90;;;;;;5117194;28;19911;-73
2024/01/08 06:32:33;;;;;;;;;;;3.70;99.90;;;;;;5109392;28;19904;-74
2024/01/08 06:34:59;;;;;;;;;;;3.70;99.90;;;;;;5117108;28;19904;-73
2024/01/08 06:37:24;;;;;;;;;;;3.70;99.90;;;;;;5115160;28;19911;-73
2024/01/08 06:39:50;;;;;;;;;;;3.70;99.90;;;;;;5115778;28;19904;-73
2024/01/08 06:42:15;;;;;;;;;;;3.70;99.90;;;;;;5115456;28;19915;-73
2024/01/08 06:44:41;;;;;;;;;;;3.70;99.90;;;;;;5115424;28;20394;-73
2024/01/08 06:47:06;;;;;;;;;;;3.70;99.90;;;;;;5116457;28;19986;-73
2024/01/08 06:49:32;;;;;;;;;;;3.70;99.90;;;;;;5117008;28;19915;-72
2024/01/08 06:51:59;;;;;;;;;;;3.70;99.90;;;;;;5116717;28;20009;-73
2024/01/08 06:54:24;;;;;;;;;;;3.70;99.90;;;;;;5116711;28;20319;-73
2024/01/08 06:56:50;;;;;;;;;;;3.70;99.90;;;;;;5116697;28;19961;-73
2024/01/08 06:59:16;;;;;;;;;;;3.70;99.90;;;;;;5115319;28;19911;-75
2024/01/08 07:01:41;;;;;;;;;;;3.70;99.90;;;;;;5103417;28;20458;-73
2024/01/08 07:04:07;;;;;;;;;;;3.70;99.90;;;;;;5114715;28;19908;-73
2024/01/08 07:06:32;;;;;;;;;;;3.70;99.90;;;;;;5116107;28;19908;-73
2024/01/08 07:08:58;;;;;;;;;;;3.70;99.90;;;;;;5116775;28;19915;-72
2024/01/08 07:11:24;;;;;;;;;;;3.70;99.90;;;;;;5114968;28;19904;-73
2024/01/08 07:13:50;;;;;;;;;;;3.70;99.90;;;;;;5116727;28;19904;-73
2024/01/08 07:16:16;;;;;;;;;;;3.70;99.90;;;;;;5110614;28;19939;-72
2024/01/08 07:18:41;;;;;;;;;;;3.70;99.90;;;;;;5116381;28;19904;-73
2024/01/08 07:21:07;;;;;;;;;;;3.70;99.90;;;;;;5114880;28;20413;-72
2024/01/08 07:23:34;;;;;;;;;;;3.60;99.90;;;;;;5114803;28;19911;-73
2024/01/08 07:26:00;;;;;;;;;;;3.60;99.90;;;;;;5109802;28;19929;-73
2024/01/08 07:28:26;;;;;;;;;;;3.60;99.90;;;;;;5115669;28;19986;-73
2024/01/08 07:30:52;;;;;;;;;;;3.60;99.90;;;;;;5115600;28;19948;-73
2024/01/08 07:33:17;;;;;;;;;;;3.60;99.90;;;;;;5102465;28;20443;-73
2024/01/08 07:35:43;;;;;;;;;;;3.60;99.90;;;;;;5115158;28;19929;-73
2024/01/08 07:38:08;;;;;;;;;;;3.60;99.90;;;;;;5115005;28;19931;-73
2024/01/08 07:40:34;;;;;;;;;;;3.60;99.90;;;;;;5114920;28;20276;-73
2024/01/08 07:43:00;;;;;;;;;;;3.60;99.90;;;;;;5116007;28;20272;-73
2024/01/08 07:45:26;;;;;;;;;;;3.60;99.90;;;;;;5116369;28;19994;-73
2024/01/08 07:47:52;;;;;;;;;;;3.60;99.90;;;;;;5115798;28;19908;-73
2024/01/08 07:50:19;;;;;;;;;;;3.60;99.90;;;;;;5114570;28;19908;-73
2024/01/08 07:52:44;;;;;;;;;;;3.60;99.90;;;;;;5115023;28;20328;-70
2024/01/08 07:55:10;;;;;;;;;;;3.60;99.90;;;;;;5115794;28;19911;-73
2024/01/08 07:57:36;;;;;;;;;;;3.70;99.90;;;;;;5114871;28;19903;-73
2024/01/08 08:00:03;;;;;;;;;;;3.70;99.90;;;;;;5116103;28;19943;-73
2024/01/08 08:02:28;;;;;;;;;;;3.70;99.90;;;;;;5115604;28;19908;-73
2024/01/08 08:04:54;;;;;;;;;;;3.70;99.90;;;;;;5114245;28;19911;-73
2024/01/08 08:07:19;;;;;;;;;;;3.70;99.90;;;;;;5115791;28;19908;-73
2024/01/08 08:09:45;;;;;;;;;;;3.70;99.90;;;;;;5095447;28;19911;-73
2024/01/08 08:12:11;;;;;;;;;;;3.70;99.90;;;;;;5102261;28;19904;-73
2024/01/08 08:14:36;;;;;;;;;;;3.70;99.90;;;;;;5110863;28;20379;-73
2024/01/08 08:17:03;;;;;;;;;;;3.70;99.90;;;;;;5099754;28;20380;-73
2024/01/08 08:19:28;;;;;;;;;;;3.70;99.90;;;;;;5098351;28;19907;-74
2024/01/08 08:21:54;;;;;;;;;;;3.80;99.90;;;;;;5098228;28;19918;-73
2024/01/08 08:24:19;;;;;;;;;;;3.70;99.90;;;;;;5108043;28;19911;-74
2024/01/08 08:26:45;;;;;;;;;;;3.70;99.90;;;;;;5095874;28;20277;-73
2024/01/08 08:29:10;;;;;;;;;;;3.70;99.90;;;;;;5101858;28;20393;-74
2024/01/08 08:31:36;;;;;;;;;;;3.70;99.90;;;;;;5104505;28;19903;-74
2024/01/08 08:34:01;;;;;;;;;;;3.70;99.90;;;;;;5102275;28;19916;-74
2024/01/08 08:36:27;;;;;;;;;;;3.80;99.90;;;;;;5111115;28;19976;-73
2024/01/08 08:38:53;;;;;;;;;;;3.80;99.90;;;;;;5097272;28;19904;-74
2024/01/08 08:41:19;;;;;;;;;;;3.80;99.90;;;;;;5099431;28;19999;-73
2024/01/08 08:43:45;;;;;;;;;;;3.80;99.90;;;;;;5100827;28;19916;-74
2024/01/08 08:46:10;;;;;;;;;;;3.90;99.90;;;;;;5107295;28;19914;-73
2024/01/08 08:48:36;;;;;;;;;;;3.90;99.90;;;;;;5113393;28;19991;-73
2024/01/08 08:51:01;;;;;;;;;;;3.90;99.90;;;;;;5109405;28;19919;-73
2024/01/08 08:53:28;;;;;;;;;;;3.90;99.90;;;;;;5106216;28;19908;-73
2024/01/08 08:55:54;;;;;;;;;;;3.90;99.90;;;;;;5100747;28;20027;-73
2024/01/08 08:58:20;;;;;;;;;;;3.90;99.90;;;;;;5101666;28;20466;-73
2024/01/08 09:00:46;;;;;;;;;;;3.90;99.90;;;;;;5114267;28;19908;-73
2024/01/08 09:03:11;;;;;;;;;;;3.90;99.90;;;;;;5104215;28;19907;-73
2024/01/08 09:05:37;;;;;;;;;;;3.90;99.90;;;;;;5102762;28;19915;-74
2024/01/08 09:08:03;;;;;;;;;;;3.90;99.90;;;;;;5106125;28;19918;-74
2024/01/08 09:10:29;;;;;;;;;;;3.90;99.90;;;;;;5109461;28;19908;-73
2024/01/08 09:12:54;;;;;;;;;;;3.90;99.90;;;;;;5103696;28;19912;-73
2024/01/08 09:15:20;;;;;;;;;;;3.90;99.90;;;;;;5108804;28;19912;-73
2024/01/08 09:17:45;;;;;;;;;;;3.90;99.90;;;;;;5112046;28;19908;-73
2024/01/08 09:20:14;;;;;;;;;;;4.00;99.90;;;;;;5104538;28;19915;-73
2024/01/08 09:22:40;;;;;;;;;;;4.00;99.90;;;;;;5110375;28;19908;-72
2024/01/08 09:25:06;;;;;;;;;;;4.00;99.90;;;;;;5111768;28;19911;-73
2024/01/08 09:27:32;;;;;;;;;;;4.00;99.90;;;;;;5108844;28;19968;-73
2024/01/08 09:29:58;;;;;;;;;;;4.00;99.90;;;;;;5113065;28;19907;-73
2024/01/08 09:32:27;;;;;;;;;;;4.00;99.90;;;;;;5112812;28;19907;-73
2024/01/08 09:34:53;;;;;;;;;;;4.00;99.90;;;;;;5112115;28;19911;-72
2024/01/08 09:37:20;;;;;;;;;;;4.10;99.90;;;;;;5112661;28;19907;-73
2024/01/08 09:39:46;;;;;;;;;;;4.10;99.90;;;;;;5110896;28;19908;-73
2024/01/08 09:42:12;;;;;;;;;;;4.10;99.90;;;;;;5112631;28;19912;-72
2024/01/08 09:44:40;;;;;;;;;;;4.20;99.90;;;;;;5104321;28;19915;-72
2024/01/08 09:47:06;;;;;;;;;;;4.20;99.90;;;;;;5107298;28;19903;-73
2024/01/08 09:49:32;;;;;;;;;;;4.30;99.90;;;;;;5111625;28;19908;-72
2024/01/08 09:52:00;;;;;;;;;;;4.30;99.90;;;;;;5109839;28;19922;-72
2024/01/08 09:54:26;;;;;;;;;;;4.30;99.90;;;;;;5106302;28;20345;-73
2024/01/08 09:56:53;;;;;;;;;;;4.30;99.90;;;;;;5108157;28;19942;-72
2024/01/08 09:59:19;;;;;;;;;;;4.40;99.90;;;;;;5112227;28;19916;-73
2024/01/08 10:01:44;;;;;;;;;;;4.40;99.90;;;;;;5105386;28;19933;-73
2024/01/08 10:04:10;;;;;;;;;;;4.30;99.90;;;;;;5107858;28;19914;-73
2024/01/08 10:06:38;;;;;;;;;;;4.30;99.90;;;;;;5111692;28;20458;-73
2024/01/08 10:09:04;;;;;;;;;;;4.30;99.90;;;;;;5101133;28;19914;-72
2024/01/08 10:11:30;;;;;;;;;;;4.30;99.90;;;;;;5107811;28;19995;-73
2024/01/08 10:13:55;;;;;;;;;;;4.30;99.90;;;;;;5107065;28;19953;-71
2024/01/08 10:16:21;;;;;;;;;;;4.40;99.90;;;;;;5108676;28;19907;-73
2024/01/08 10:18:47;;;;;;;;;;;4.30;99.90;;;;;;5105270;28;19919;-73
2024/01/08 10:21:13;;;;;;;;;;;4.40;99.90;;;;;;5106616;28;20393;-73
2024/01/08 10:23:39;;;;;;;;;;;4.30;99.90;;;;;;5105962;28;20002;-72
2024/01/08 10:26:05;;;;;;;;;;;4.30;99.90;;;;;;5109269;28;19954;-73
2024/01/08 10:28:37;;;;;;;;;;;4.30;99.90;;;;;;5104283;28;19904;-73
2024/01/08 10:31:10;;;;;;;;;;;4.30;99.90;;;;;;5107504;28;19912;-73
2024/01/08 10:33:36;;;;;;;;;;;4.30;99.90;;;;;;5110232;28;19908;-73
2024/01/08 10:36:04;;;;;;;;;;;4.30;99.90;;;;;;5108501;28;19924;-74
2024/01/08 10:38:31;;;;;;;;;;;4.30;99.90;;;;;;5109105;28;19908;-72
2024/01/08 10:40:57;;;;;;;;;;;4.30;99.90;;;;;;5105422;28;19907;-73
2024/01/08 10:43:24;;;;;;;;;;;4.30;99.90;;;;;;5108241;28;20307;-73
2024/01/08 10:45:52;;;;;;;;;;;4.30;99.90;;;;;;5105664;28;19904;-73
2024/01/08 10:48:20;;;;;;;;;;;4.30;99.90;;;;;;5105849;28;19907;-74
2024/01/08 10:50:50;;;;;;;;;;;4.30;99.90;;;;;;5104515;28;19989;-72
2024/01/08 10:53:26;;;;;;;;;;;4.20;99.90;;;;;;5102480;28;20036;-74
2024/01/08 10:55:52;;;;;;;;;;;4.20;99.90;;;;;;5105252;28;19982;-73
2024/01/08 10:58:23;;;;;;;;;;;4.20;99.90;;;;;;5107483;28;20721;-72
2024/01/08 11:00:50;;;;;;;;;;;4.30;99.90;;;;;;5108652;28;19915;-73
2024/01/08 11:03:15;;;;;;;;;;;4.30;99.90;;;;;;5104677;28;19915;-72
2024/01/08 11:05:46;;;;;;;;;;;4.30;99.90;;;;;;5103145;28;19907;-72
2024/01/08 11:08:13;;;;;;;;;;;4.20;99.90;;;;;;5106981;28;20026;-73
2024/01/08 11:10:38;;;;;;;;;;;4.30;99.90;;;;;;5108576;28;19904;-72
2024/01/08 11:13:04;;;;;;;;;;;4.20;99.90;;;;;;5104037;28;19963;-73
2024/01/08 11:15:30;;;;;;;;;;;4.20;99.90;;;;;;5101847;28;20007;-73
2024/01/08 11:18:01;;;;;;;;;;;4.30;99.90;;;;;;5110735;28;19907;-73
2024/01/08 11:20:33;;;;;;;;;;;4.30;99.90;;;;;;5107892;28;20796;-73
2024/01/08 11:23:01;;;;;;;;;;;4.20;99.90;;;;;;5103949;28;19908;-73
2024/01/08 11:25:26;;;;;;;;;;;4.20;99.90;;;;;;5099885;28;19923;-72
2024/01/08 11:27:57;;;;;;;;;;;4.20;99.90;;;;;;5104036;28;19911;-72
2024/01/08 11:30:22;;;;;;;;;;;4.30;99.90;;;;;;5101607;28;19914;-72
2024/01/08 11:32:51;;;;;;;;;;;4.20;99.90;;;;;;5108443;28;20367;-73
2024/01/08 11:35:19;;;;;;;;;;;4.20;99.90;;;;;;5104509;28;19912;-73
2024/01/08 11:37:47;;;;;;;;;;;4.20;99.90;;;;;;5105184;28;20487;-72
2024/01/08 11:40:13;;;;;;;;;;;4.10;99.90;;;;;;5102202;28;19911;-73
2024/01/08 11:42:39;;;;;;;;;;;4.00;99.90;;;;;;5104724;28;20804;-72
2024/01/08 11:45:05;;;;;;;;;;;3.90;99.90;;;;;;5105639;28;20176;-73
2024/01/08 11:47:31;;;;;;;;;;;3.90;99.90;;;;;;5106668;28;19908;-72
2024/01/08 11:49:57;;;;;;;;;;;3.80;99.90;;;;;;5106917;28;20421;-72
2024/01/08 11:52:23;;;;;;;;;;;3.70;99.90;;;;;;5108881;28;20098;-73
2024/01/08 11:54:49;;;;;;;;;;;3.60;99.90;;;;;;5104483;28;20375;-73
2024/01/08 11:57:16;;;;;;;;;;;3.50;99.90;;;;;;5100230;28;20003;-72
2024/01/08 11:59:41;;;;;;;;;;;3.40;99.90;;;;;;5106129;28;20280;-73
2024/01/08 12:02:14;;;;;;;;;;;3.30;99.90;;;;;;5102621;28;19977;-73
2024/01/08 12:05:00;;;;;;;;;;;3.30;99.90;;;;;;5106224;28;19918;-73
2024/01/08 12:07:27;;;;;;;;;;;3.30;99.90;;;;;;5106745;28;19907;-74
2024/01/08 12:09:53;;;;;;;;;;;3.30;99.90;;;;;;5106790;28;20295;-75
2024/01/08 12:12:19;;;;;;;;;;;3.30;99.90;;;;;;5108779;28;19908;-76
2024/01/08 12:14:47;;;;;;;;;;;3.40;99.90;;;;;;5109227;28;20517;-74
2024/01/08 12:17:14;;;;;;;;;;;3.50;99.90;;;;;;5111020;28;19908;-74
2024/01/08 12:19:58;;;;;;;;;;;3.50;99.90;;;;;;5110914;28;19908;-74
2024/01/08 12:22:24;;;;;;;;;;;3.60;99.90;;;;;;5108182;28;20321;-74
2024/01/08 12:24:50;;;;;;;;;;;3.70;99.90;;;;;;5108886;28;19923;-74
2024/01/08 12:27:17;;;;;;;;;;;3.70;99.90;;;;;;5113713;28;19928;-73
2024/01/08 12:29:43;;;;;;;;;;;3.70;99.90;;;;;;5105257;28;19912;-74
2024/01/08 12:32:10;;;;;;;;;;;3.70;99.90;;;;;;5107738;28;19915;-73
2024/01/08 12:34:42;;;;;;;;;;;3.80;99.90;;;;;;5109162;28;19994;-73
2024/01/08 12:37:09;;;;;;;;;;;3.90;99.90;;;;;;5106893;28;19954;-73
2024/01/08 12:39:34;;;;;;;;;;;3.90;99.90;;;;;;5112212;28;19904;-74
2024/01/08 12:42:00;;;;;;;;;;;3.90;99.90;;;;;;5110499;28;19912;-74
2024/01/08 12:44:28;;;;;;;;;;;4.00;99.90;;;;;;5111449;28;19969;-74
2024/01/08 12:46:57;;;;;;;;;;;4.10;99.90;;;;;;5108387;28;19904;-74
2024/01/08 12:49:23;;;;;;;;;;;4.10;99.90;;;;;;5107741;28;19916;-73
2024/01/08 12:51:52;;;;;;;;;;;4.20;99.90;;;;;;5111341;28;19915;-73
2024/01/08 12:54:18;;;;;;;;;;;4.20;99.90;;;;;;5109660;28;20455;-74
2024/01/08 12:56:43;;;;;;;;;;;4.10;99.90;;;;;;5107156;28;19938;-74
2024/01/08 12:59:11;;;;;;;;;;;4.10;99.90;;;;;;5109955;28;20351;-74
2024/01/08 13:01:36;;;;;;;;;;;4.10;99.90;;;;;;5108348;28;20284;-73
2024/01/08 13:04:02;;;;;;;;;;;4.00;99.90;;;;;;5101446;28;19920;-73
2024/01/08 13:06:27;;;;;;;;;;;4.00;99.90;;;;;;5108611;28;19911;-76
2024/01/08 13:08:53;;;;;;;;;;;4.00;99.90;;;;;;5100916;28;19915;-75
2024/01/08 13:11:19;;;;;;;;;;;4.00;99.90;;;;;;5098622;28;19910;-76
2024/01/08 13:13:46;;;;;;;;;;;4.00;99.90;;;;;;5101693;28;19947;-76
2024/01/08 13:16:11;;;;;;;;;;;4.00;99.90;;;;;;5109010;28;19958;-76
2024/01/08 13:18:37;;;;;;;;;;;4.10;99.90;;;;;;5108101;28;19911;-75
2024/01/08 13:21:03;;;;;;;;;;;4.10;99.90;;;;;;5107787;28;19968;-78
2024/01/08 13:23:28;;;;;;;;;;;4.20;99.90;;;;;;5106395;28;19912;-76
2024/01/08 13:25:55;;;;;;;;;;;4.20;99.90;;;;;;5104223;28;19915;-73
2024/01/08 13:28:20;;;;;;;;;;;4.30;99.90;;;;;;5105918;28;19915;-74
2024/01/08 13:30:46;;;;;;;;;;;4.40;99.90;;;;;;5109691;28;19904;-74
2024/01/08 13:33:11;;;;;;;;;;;4.40;99.90;;;;;;5110631;28;19904;-74
2024/01/08 13:35:37;;;;;;;;;;;4.50;99.90;;;;;;5105000;28;19919;-74
2024/01/08 13:38:02;;;;;;;;;;;4.60;99.90;;;;;;5104191;28;19912;-75
2024/01/08 13:40:28;;;;;;;;;;;4.60;99.90;;;;;;5109969;28;20692;-75
2024/01/08 13:42:54;;;;;;;;;;;4.60;99.90;;;;;;5107024;28;19946;-75
2024/01/08 13:45:21;;;;;;;;;;;4.60;99.90;;;;;;5110592;28;19962;-74
2024/01/08 13:47:49;;;;;;;;;;;4.70;99.90;;;;;;5105787;28;19915;-75
2024/01/08 13:50:15;;;;;;;;;;;4.70;99.90;;;;;;5108913;28;20299;-73
2024/01/08 13:52:41;;;;;;;;;;;4.80;99.90;;;;;;5109986;28;19904;-76
2024/01/08 13:55:09;;;;;;;;;;;4.80;99.90;;;;;;5110814;28;20385;-74
2024/01/08 13:57:35;;;;;;;;;;;4.90;99.90;;;;;;5104496;28;20650;-74
2024/01/08 14:00:01;;;;;;;;;;;4.90;99.90;;;;;;5112671;28;20302;-75
2024/01/08 14:02:27;;;;;;;;;;;5.00;99.90;;;;;;5108283;28;19919;-74
2024/01/08 14:04:54;;;;;;;;;;;5.00;99.90;;;;;;5103847;28;19919;-74
2024/01/08 14:07:19;;;;;;;;;;;5.10;99.90;;;;;;5106591;28;19913;-75
2024/01/08 14:09:45;;;;;;;;;;;5.10;99.90;;;;;;5102231;28;19911;-75
2024/01/08 14:12:11;;;;;;;;;;;5.10;99.90;;;;;;5107827;28;20005;-75
2024/01/08 14:14:38;;;;;;;;;;;5.00;99.90;;;;;;5108427;28;19904;-76
2024/01/08 14:17:04;;;;;;;;;;;5.10;99.90;;;;;;5100693;28;20521;-75
2024/01/08 14:19:29;;;;;;;;;;;5.10;99.90;;;;;;5109140;28;19911;-75
2024/01/08 14:21:55;;;;;;;;;;;5.10;99.90;;;;;;5105754;28;20007;-75
2024/01/08 14:24:20;;;;;;;;;;;5.00;99.90;;;;;;5103703;28;19922;-76